Allyn, Washington
Current Conditions -  °F | °C
As of 5:35 PM on Tuesday 25 Nov 2014 (Local Time) from KPWT Reporting Station
Overcast Overcast  
Wind Chill: 55°   Ceiling: 800
Heat Index: 55°   Visibility: 10mi
Dew Point: 55°   Wind: 18mph
Humidity: 100%   Direction: 180°S
Pressure: 30.17"   Gusts: 28mph
Location:  47.39°N, 122.83°W
Report Text: KPWT 260135Z AUTO 18016G24KT 10SM BKN008 OVC014 13/13 A3017 RMK AO1
Loading
Personal Weather Stations






























Interactive Weather Map New forecast layout! Learn more

10-Day Weather Forecast

Advertisements
Track Severe Weather on mobile